createdAt,value
2023-09-24T00:01:43.345Z,19.50
2023-09-24T00:05:49.657Z,19.41
2023-09-24T00:07:51.719Z,19.32
2023-09-24T00:09:53.428Z,19.38
2023-09-24T00:11:55.364Z,19.31
2023-09-24T00:13:57.115Z,19.38
2023-09-24T00:16:08.235Z,19.38
2023-09-24T00:18:10.922Z,19.37
2023-09-24T00:20:14.461Z,19.37
2023-09-24T00:22:17.402Z,19.37
2023-09-24T00:24:19.426Z,19.35
2023-09-24T00:26:21.199Z,19.31
2023-09-24T00:28:25.084Z,19.29
2023-09-24T00:30:26.764Z,19.25
2023-09-24T00:32:28.471Z,19.20
2023-09-24T00:34:30.216Z,19.18
2023-09-24T00:36:36.917Z,19.18
2023-09-24T00:38:39.712Z,19.15
2023-09-24T00:40:41.426Z,19.04
2023-09-24T00:42:43.239Z,19.07
2023-09-24T00:44:44.956Z,19.03
2023-09-24T00:46:47.695Z,19.02
2023-09-24T00:48:51.605Z,19.00
2023-09-24T00:50:54.743Z,19.00
2023-09-24T00:52:59.018Z,18.98
2023-09-24T00:56:43.359Z,18.88
2023-09-24T00:58:48.062Z,18.86
2023-09-24T01:00:49.848Z,18.83
2023-09-24T01:02:52.096Z,18.82
2023-09-24T01:04:54.779Z,18.82
2023-09-24T01:06:58.573Z,18.84
2023-09-24T01:09:01.304Z,18.90
2023-09-24T01:11:03.936Z,18.87
2023-09-24T01:13:06.283Z,18.90
2023-09-24T01:15:14.845Z,18.91
2023-09-24T01:17:20.512Z,18.90
2023-09-24T01:19:24.776Z,18.89
2023-09-24T01:21:29.062Z,18.75
2023-09-24T01:23:38.445Z,18.84
2023-09-24T01:25:42.124Z,18.91
2023-09-24T01:27:44.260Z,18.88
2023-09-24T01:29:46.894Z,18.90
2023-09-24T01:31:48.702Z,18.89
2023-09-24T01:33:51.242Z,18.86
2023-09-24T01:35:53.305Z,18.83
2023-09-24T01:38:01.239Z,18.80
2023-09-24T01:40:19.719Z,18.77
2023-09-24T01:42:21.598Z,18.74
2023-09-24T01:44:25.478Z,18.73
2023-09-24T01:46:27.996Z,18.74
2023-09-24T01:48:30.257Z,18.74
2023-09-24T01:50:38.280Z,18.73
2023-09-24T01:52:40.123Z,18.72
2023-09-24T01:54:41.776Z,18.69
2023-09-24T01:56:44.203Z,18.68
2023-09-24T01:58:47.504Z,18.67
2023-09-24T02:00:49.281Z,18.63
2023-09-24T02:02:52.279Z,18.60
2023-09-24T02:04:55.730Z,18.59
2023-09-24T02:06:57.631Z,18.57
2023-09-24T02:08:59.814Z,18.57
2023-09-24T02:11:03.090Z,18.57
2023-09-24T02:13:04.979Z,18.55
2023-09-24T02:15:12.061Z,18.56
2023-09-24T02:17:13.848Z,18.55
2023-09-24T02:19:15.849Z,18.52
2023-09-24T02:21:21.389Z,18.48
2023-09-24T02:23:24.312Z,18.44
2023-09-24T02:25:38.524Z,18.41
2023-09-24T02:27:43.614Z,18.38
2023-09-24T02:29:49.242Z,18.36
2023-09-24T02:31:53.841Z,18.33
2023-09-24T02:33:56.211Z,18.35
2023-09-24T02:35:59.382Z,18.33
2023-09-24T02:38:01.505Z,18.33
2023-09-24T02:40:06.854Z,18.29
2023-09-24T02:42:08.620Z,18.26
2023-09-24T02:44:10.352Z,18.26
2023-09-24T02:46:13.198Z,18.23
2023-09-24T02:48:15.792Z,18.18
2023-09-24T02:50:23.774Z,18.13
2023-09-24T02:52:28.067Z,18.07
2023-09-24T02:54:29.795Z,18.00
2023-09-24T02:56:31.683Z,17.94
2023-09-24T02:58:33.605Z,17.89
2023-09-24T03:00:38.137Z,17.86
2023-09-24T03:02:40.675Z,17.84
2023-09-24T03:04:42.514Z,17.84
2023-09-24T03:06:44.855Z,17.85
2023-09-24T03:08:50.422Z,17.85
2023-09-24T03:10:53.030Z,17.83
2023-09-24T03:12:56.313Z,17.81
2023-09-24T03:14:58.264Z,17.75
2023-09-24T03:17:00.649Z,17.70
2023-09-24T03:19:03.963Z,17.67
2023-09-24T03:21:13.260Z,17.64
2023-09-24T03:23:15.019Z,17.63
2023-09-24T03:25:18.881Z,17.63
2023-09-24T03:27:21.514Z,17.64
2023-09-24T03:29:23.253Z,17.65
2023-09-24T03:31:25.001Z,17.65
2023-09-24T03:33:29.558Z,17.64
2023-09-24T03:35:31.461Z,17.62
2023-09-24T03:37:36.213Z,17.60
2023-09-24T03:39:38.555Z,17.54
2023-09-24T03:41:41.405Z,17.49
2023-09-24T03:43:43.723Z,17.47
2023-09-24T03:45:45.544Z,17.46
2023-09-24T03:47:48.530Z,17.46
2023-09-24T03:49:50.423Z,17.46
2023-09-24T03:51:52.508Z,17.47
2023-09-24T03:53:54.147Z,17.48
2023-09-24T03:55:56.596Z,17.49
2023-09-24T03:57:58.765Z,17.52
2023-09-24T04:00:00.621Z,17.52
2023-09-24T04:02:07.395Z,17.52
2023-09-24T04:04:13.886Z,17.57
2023-09-24T04:06:15.916Z,17.60
2023-09-24T04:08:17.943Z,17.64
2023-09-24T04:10:21.572Z,17.73
2023-09-24T04:12:23.456Z,17.91
2023-09-24T04:14:25.336Z,18.11
2023-09-24T04:16:27.167Z,18.22
2023-09-24T04:18:28.983Z,18.51
2023-09-24T04:20:34.677Z,18.79
2023-09-24T04:22:37.145Z,19.07
2023-09-24T04:24:39.381Z,19.28
2023-09-24T04:26:41.390Z,19.45
2023-09-24T04:28:43.125Z,19.67
2023-09-24T04:30:44.787Z,19.89
2023-09-24T04:32:53.250Z,20.05
2023-09-24T04:34:56.926Z,20.26
2023-09-24T04:36:58.575Z,20.45
2023-09-24T04:39:00.266Z,20.72
2023-09-24T04:41:02.224Z,20.98
2023-09-24T04:43:04.122Z,21.23
2023-09-24T04:45:07.685Z,21.51
2023-09-24T04:47:09.941Z,21.79
2023-09-24T04:49:11.760Z,22.07
2023-09-24T04:51:13.623Z,22.29
2023-09-24T04:53:16.223Z,22.55
2023-09-24T04:55:18.600Z,22.77
2023-09-24T04:57:20.480Z,22.98
2023-09-24T04:59:22.195Z,23.04
2023-09-24T05:01:24.035Z,23.14
2023-09-24T05:03:26.045Z,23.28
2023-09-24T05:05:27.957Z,23.50
2023-09-24T05:07:29.732Z,23.78
2023-09-24T05:09:31.532Z,24.08
2023-09-24T05:11:33.877Z,24.35
2023-09-24T05:13:36.530Z,24.63
2023-09-24T05:15:38.197Z,24.82
2023-09-24T05:17:40.686Z,24.93
2023-09-24T05:19:42.439Z,25.02
2023-09-24T05:21:46.147Z,25.13
2023-09-24T05:23:48.138Z,25.20
2023-09-24T05:25:52.296Z,25.29
2023-09-24T05:27:54.549Z,25.31
2023-09-24T05:29:56.615Z,25.37
2023-09-24T05:31:58.552Z,25.59
2023-09-24T05:34:00.187Z,25.80
2023-09-24T05:36:02.424Z,25.94
2023-09-24T05:38:04.471Z,26.11
2023-09-24T05:40:06.926Z,26.13
2023-09-24T05:42:08.648Z,25.90
2023-09-24T05:44:11.406Z,25.57
2023-09-24T05:46:13.392Z,25.38
2023-09-24T05:48:16.942Z,25.38
2023-09-24T05:50:18.954Z,25.49
2023-09-24T05:52:20.599Z,25.52
2023-09-24T05:54:22.288Z,25.44
2023-09-24T05:56:25.760Z,25.30
2023-09-24T05:58:27.459Z,25.18
2023-09-24T06:00:29.821Z,25.15
2023-09-24T06:02:31.573Z,25.17
2023-09-24T06:04:33.554Z,25.28
2023-09-24T06:06:35.411Z,25.53
2023-09-24T06:08:38.801Z,25.81
2023-09-24T06:10:47.508Z,26.13
2023-09-24T06:12:49.255Z,26.47
2023-09-24T06:14:51.947Z,26.66
2023-09-24T06:16:53.646Z,26.80
2023-09-24T06:18:55.312Z,26.91
2023-09-24T06:20:58.371Z,27.01
2023-09-24T06:23:00.177Z,27.29
2023-09-24T06:25:01.975Z,27.49
2023-09-24T06:27:05.750Z,27.68
2023-09-24T06:29:11.519Z,27.68
2023-09-24T06:31:13.986Z,27.36
2023-09-24T06:33:15.722Z,26.94
2023-09-24T06:35:17.542Z,26.47
2023-09-24T06:37:19.236Z,25.90
2023-09-24T06:39:20.899Z,25.31
2023-09-24T06:41:23.641Z,24.81
2023-09-24T06:43:26.921Z,24.43
2023-09-24T06:45:28.755Z,24.18
2023-09-24T06:47:30.545Z,23.96
2023-09-24T06:49:32.413Z,23.71
2023-09-24T06:51:34.073Z,23.59
2023-09-24T06:53:38.411Z,23.45
2023-09-24T06:55:41.120Z,23.30
2023-09-24T06:57:43.036Z,23.13
2023-09-24T06:59:45.185Z,22.97
2023-09-24T07:01:47.055Z,22.81
2023-09-24T07:03:50.098Z,22.71
2023-09-24T07:05:53.314Z,22.64
2023-09-24T07:07:55.116Z,22.58
2023-09-24T07:09:57.094Z,22.52
2023-09-24T07:11:58.840Z,22.47
2023-09-24T07:14:02.391Z,22.59
2023-09-24T07:16:07.227Z,22.64
2023-09-24T07:18:10.121Z,22.67
2023-09-24T07:20:13.553Z,22.70
2023-09-24T07:22:15.262Z,22.77
2023-09-24T07:24:17.019Z,22.84
2023-09-24T07:26:20.286Z,22.88
2023-09-24T07:28:25.698Z,22.89
2023-09-24T07:30:27.903Z,22.89
2023-09-24T07:32:30.626Z,22.95
2023-09-24T07:34:32.558Z,22.99
2023-09-24T07:36:44.017Z,23.03
2023-09-24T07:38:56.763Z,23.06
2023-09-24T07:40:58.745Z,23.08
2023-09-24T07:43:00.387Z,23.12
2023-09-24T07:45:02.319Z,23.16
2023-09-24T07:47:04.343Z,23.20
2023-09-24T07:49:07.721Z,23.25
2023-09-24T07:51:11.188Z,23.32
2023-09-24T07:53:12.925Z,23.37
2023-09-24T07:55:14.605Z,23.43
2023-09-24T07:57:16.743Z,23.42
2023-09-24T07:59:18.703Z,23.61
2023-09-24T08:01:23.675Z,23.64
2023-09-24T08:03:25.605Z,23.67
2023-09-24T08:05:27.390Z,23.69
2023-09-24T08:07:31.450Z,23.73
2023-09-24T08:09:33.220Z,23.78
2023-09-24T08:11:35.018Z,23.87
2023-09-24T08:13:36.885Z,23.98
2023-09-24T08:15:38.674Z,24.01
2023-09-24T08:17:41.328Z,24.05
2023-09-24T08:19:43.040Z,24.10
2023-09-24T08:21:44.746Z,24.20
2023-09-24T08:23:46.491Z,24.31
2023-09-24T08:25:53.311Z,24.37
2023-09-24T08:27:55.338Z,24.44
2023-09-24T08:29:57.113Z,24.54
2023-09-24T08:31:59.071Z,24.62
2023-09-24T08:34:01.438Z,24.61
2023-09-24T08:36:09.048Z,24.70
2023-09-24T08:38:11.246Z,24.73
2023-09-24T08:40:13.867Z,24.74
2023-09-24T08:42:20.143Z,24.77
2023-09-24T08:44:25.240Z,24.84
2023-09-24T08:46:27.783Z,24.93
2023-09-24T08:48:30.633Z,24.94
2023-09-24T08:50:33.202Z,25.12
2023-09-24T08:52:38.087Z,25.21
2023-09-24T08:54:40.294Z,25.30
2023-09-24T08:56:42.049Z,25.38
2023-09-24T08:58:45.409Z,25.46
2023-09-24T09:00:47.297Z,25.55
2023-09-24T09:02:50.498Z,25.64
2023-09-24T09:04:53.238Z,25.69
2023-09-24T09:06:56.541Z,25.71
2023-09-24T09:09:00.477Z,25.77
2023-09-24T09:11:03.810Z,25.83
2023-09-24T09:13:11.368Z,25.87
2023-09-24T09:15:19.092Z,25.89
2023-09-24T09:17:21.010Z,25.87
2023-09-24T09:19:23.325Z,25.91
2023-09-24T09:21:28.625Z,25.95
2023-09-24T09:23:38.229Z,26.04
2023-09-24T09:25:47.773Z,26.09
2023-09-24T09:27:51.544Z,26.10
2023-09-24T09:29:53.364Z,26.07
2023-09-24T09:32:00.153Z,26.08
2023-09-24T09:34:08.270Z,26.09
2023-09-24T09:36:31.541Z,26.20
2023-09-24T09:38:33.186Z,26.22
2023-09-24T09:40:34.794Z,26.19
2023-09-24T09:42:38.356Z,26.18
2023-09-24T09:44:43.804Z,26.16
2023-09-24T09:46:48.976Z,26.13
2023-09-24T09:49:00.605Z,26.11
2023-09-24T09:51:07.750Z,26.12
2023-09-24T09:53:11.507Z,26.18
2023-09-24T09:55:13.732Z,26.24
2023-09-24T09:57:17.968Z,26.32
2023-09-24T09:59:21.138Z,26.45
2023-09-24T10:01:23.381Z,26.55
2023-09-24T10:03:27.766Z,26.62
2023-09-24T10:05:30.302Z,26.70
2023-09-24T10:07:32.031Z,26.72
2023-09-24T10:09:35.855Z,26.74
2023-09-24T10:11:38.531Z,26.76
2023-09-24T10:13:45.870Z,26.78
2023-09-24T10:15:47.702Z,26.78
2023-09-24T10:18:14.072Z,26.75
2023-09-24T10:20:19.785Z,26.70
2023-09-24T10:22:32.975Z,26.65
2023-09-24T10:24:37.517Z,26.62
2023-09-24T10:26:50.585Z,26.57
2023-09-24T10:28:53.048Z,26.56
2023-09-24T10:31:08.260Z,26.60
2023-09-24T10:33:10.165Z,26.66
2023-09-24T10:35:12.562Z,26.67
2023-09-24T10:37:14.275Z,26.70
2023-09-24T10:39:16.000Z,26.72
2023-09-24T10:41:17.753Z,26.75
2023-09-24T10:43:19.833Z,26.79
2023-09-24T10:45:23.079Z,26.86
2023-09-24T10:47:27.229Z,26.89
2023-09-24T10:49:29.201Z,26.88
2023-09-24T10:51:31.499Z,26.86
2023-09-24T10:53:33.363Z,26.85
2023-09-24T10:55:38.152Z,26.84
2023-09-24T10:57:40.183Z,26.80
2023-09-24T10:59:41.887Z,26.78
2023-09-24T11:01:44.276Z,26.77
2023-09-24T11:03:46.373Z,26.77
2023-09-24T11:05:50.281Z,26.78
2023-09-24T11:07:53.879Z,26.79
2023-09-24T11:09:55.697Z,26.80
2023-09-24T11:11:57.489Z,26.80
2023-09-24T11:14:14.354Z,26.78
2023-09-24T11:16:16.719Z,26.81
2023-09-24T11:18:18.960Z,26.86
2023-09-24T11:20:23.853Z,26.92
2023-09-24T11:22:28.230Z,26.97
2023-09-24T11:24:30.143Z,27.00
2023-09-24T11:26:34.448Z,27.00
2023-09-24T11:28:36.298Z,26.99
2023-09-24T11:30:46.268Z,27.00
2023-09-24T11:32:51.350Z,26.98
2023-09-24T11:35:14.520Z,26.93
2023-09-24T11:37:16.885Z,26.90
2023-09-24T11:39:20.280Z,26.90
2023-09-24T11:41:22.141Z,26.91
2023-09-24T11:43:24.515Z,26.95
2023-09-24T11:45:52.146Z,26.98
2023-09-24T11:47:54.217Z,27.00
2023-09-24T11:49:56.081Z,27.00
2023-09-24T11:51:58.143Z,27.02
2023-09-24T11:54:01.161Z,27.05
2023-09-24T11:56:03.171Z,27.05
2023-09-24T11:58:08.381Z,27.05
2023-09-24T12:00:11.446Z,27.06
2023-09-24T12:02:15.227Z,27.07
2023-09-24T12:04:16.959Z,27.09
2023-09-24T12:06:18.753Z,27.05
2023-09-24T12:08:20.933Z,27.08
2023-09-24T12:10:22.939Z,27.06
2023-09-24T12:12:24.948Z,27.04
2023-09-24T12:14:27.276Z,27.03
2023-09-24T12:16:29.157Z,27.04
2023-09-24T12:18:31.084Z,27.07
2023-09-24T12:20:34.665Z,27.08
2023-09-24T12:22:36.358Z,27.07
2023-09-24T12:24:38.060Z,27.08
2023-09-24T12:26:39.775Z,27.08
2023-09-24T12:28:41.465Z,27.07
2023-09-24T12:30:44.658Z,27.07
2023-09-24T12:32:47.166Z,27.06
2023-09-24T12:34:49.089Z,27.05
2023-09-24T12:36:50.717Z,27.02
2023-09-24T12:38:52.474Z,27.01
2023-09-24T12:40:54.956Z,27.01
2023-09-24T12:42:56.812Z,26.99
2023-09-24T12:44:59.868Z,26.98
2023-09-24T12:47:02.007Z,26.98
2023-09-24T12:49:03.821Z,26.96
2023-09-24T12:51:05.548Z,26.96
2023-09-24T12:53:07.221Z,26.97
2023-09-24T12:55:11.980Z,26.97
2023-09-24T12:57:13.790Z,26.96
2023-09-24T12:59:15.454Z,26.98
2023-09-24T13:01:19.343Z,27.00
2023-09-24T13:03:21.451Z,27.02
2023-09-24T13:05:24.822Z,27.02
2023-09-24T13:07:26.519Z,27.00
2023-09-24T13:09:28.489Z,26.98
2023-09-24T13:13:36.144Z,26.96
2023-09-24T13:15:37.809Z,26.95
2023-09-24T13:17:39.775Z,26.97
2023-09-24T13:19:41.685Z,26.99
2023-09-24T13:21:43.336Z,27.03
2023-09-24T13:23:45.473Z,27.00
2023-09-24T13:25:47.392Z,26.98
2023-09-24T13:27:49.267Z,26.95
2023-09-24T13:29:54.529Z,26.94
2023-09-24T13:31:56.589Z,26.92
2023-09-24T13:33:58.525Z,26.92
2023-09-24T13:36:00.358Z,26.92
2023-09-24T13:38:02.096Z,26.91
2023-09-24T13:40:05.684Z,26.89
2023-09-24T13:42:07.558Z,26.89
2023-09-24T13:44:09.452Z,26.89
2023-09-24T13:46:11.389Z,26.89
2023-09-24T13:48:14.247Z,26.88
2023-09-24T13:50:16.189Z,26.87
2023-09-24T13:52:17.927Z,26.87
2023-09-24T13:54:19.900Z,26.86
2023-09-24T13:56:21.793Z,26.86
2023-09-24T13:58:24.147Z,26.87
2023-09-24T14:00:25.809Z,26.88
2023-09-24T14:02:27.575Z,26.89
2023-09-24T14:04:29.604Z,26.89
2023-09-24T14:06:31.410Z,26.90
2023-09-24T14:08:53.555Z,26.89
2023-09-24T14:11:14.224Z,26.90
2023-09-24T14:13:15.903Z,26.89
2023-09-24T14:15:17.924Z,26.89
2023-09-24T14:17:22.848Z,26.89
2023-09-24T14:19:24.583Z,26.89
2023-09-24T14:21:26.770Z,26.88
2023-09-24T14:23:28.929Z,26.87
2023-09-24T14:25:30.593Z,26.85
2023-09-24T14:27:32.347Z,26.84
2023-09-24T14:29:34.318Z,26.82
2023-09-24T14:31:36.407Z,26.81
2023-09-24T14:33:38.363Z,26.79
2023-09-24T14:35:41.429Z,26.78
2023-09-24T14:37:43.155Z,26.76
2023-09-24T14:39:45.024Z,26.76
2023-09-24T14:41:47.269Z,26.74
2023-09-24T14:43:49.199Z,26.72
2023-09-24T14:46:01.975Z,26.70
2023-09-24T14:48:04.612Z,26.69
2023-09-24T14:50:07.388Z,26.61
2023-09-24T14:52:09.794Z,26.65
2023-09-24T14:54:13.634Z,26.64
2023-09-24T14:56:21.978Z,26.62
2023-09-24T14:58:24.342Z,26.60
2023-09-24T15:00:26.255Z,26.59
2023-09-24T15:02:28.253Z,26.51
2023-09-24T15:04:30.597Z,26.55
2023-09-24T15:06:32.370Z,26.52
2023-09-24T15:08:35.233Z,26.50
2023-09-24T15:10:44.216Z,26.48
2023-09-24T15:12:46.178Z,26.45
2023-09-24T15:14:47.909Z,26.43
2023-09-24T15:16:49.669Z,26.41
2023-09-24T15:18:51.789Z,26.38
2023-09-24T15:20:53.643Z,26.35
2023-09-24T15:22:56.224Z,26.32
2023-09-24T15:24:58.029Z,26.29
2023-09-24T15:27:00.214Z,26.26
2023-09-24T15:29:02.356Z,26.22
2023-09-24T15:31:04.277Z,26.19
2023-09-24T15:33:06.391Z,26.17
2023-09-24T15:35:08.984Z,26.13
2023-09-24T15:37:11.733Z,26.10
2023-09-24T15:39:15.353Z,26.07
2023-09-24T15:41:17.170Z,26.03
2023-09-24T15:43:18.885Z,26.00
2023-09-24T15:45:20.674Z,25.96
2023-09-24T15:47:22.395Z,25.91
2023-09-24T15:49:24.057Z,25.88
2023-09-24T15:51:26.760Z,25.84
2023-09-24T15:53:29.271Z,25.81
2023-09-24T15:55:31.019Z,25.77
2023-09-24T15:57:33.483Z,25.74
2023-09-24T15:59:35.120Z,25.69
2023-09-24T16:01:36.896Z,25.64
2023-09-24T16:03:38.629Z,25.60
2023-09-24T16:05:41.413Z,25.55
2023-09-24T16:07:43.443Z,25.51
2023-09-24T16:09:45.152Z,25.46
2023-09-24T16:11:46.964Z,25.42
2023-09-24T16:13:49.324Z,25.39
2023-09-24T16:15:52.623Z,25.34
2023-09-24T16:17:55.031Z,25.29
2023-09-24T16:19:56.943Z,25.25
2023-09-24T16:22:00.221Z,25.22
2023-09-24T16:24:02.022Z,25.19
2023-09-24T16:26:09.413Z,25.15
2023-09-24T16:28:11.094Z,25.12
2023-09-24T16:30:13.772Z,25.06
2023-09-24T16:32:16.465Z,25.02
2023-09-24T16:34:18.375Z,24.98
2023-09-24T16:36:20.220Z,24.95
2023-09-24T16:38:22.032Z,24.92
2023-09-24T16:40:23.726Z,24.82
2023-09-24T16:42:27.118Z,24.84
2023-09-24T16:44:30.109Z,24.80
2023-09-24T16:46:32.566Z,24.78
2023-09-24T16:48:34.398Z,24.74
2023-09-24T16:50:37.673Z,24.71
2023-09-24T16:52:39.550Z,24.67
2023-09-24T16:54:41.177Z,24.62
2023-09-24T16:56:42.906Z,24.59
2023-09-24T16:58:44.966Z,24.54
2023-09-24T17:00:46.645Z,24.50
2023-09-24T17:02:48.647Z,24.45
2023-09-24T17:04:50.663Z,24.41
2023-09-24T17:06:53.501Z,24.37
2023-09-24T17:08:55.277Z,24.34
2023-09-24T17:10:57.117Z,24.30
2023-09-24T17:12:59.460Z,24.28
2023-09-24T17:15:01.141Z,24.27
2023-09-24T17:17:02.924Z,24.25
2023-09-24T17:19:05.154Z,24.23
2023-09-24T17:21:11.208Z,24.19
2023-09-24T17:23:13.363Z,24.10
2023-09-24T17:25:15.336Z,24.01
2023-09-24T17:27:17.232Z,23.94
2023-09-24T17:29:21.119Z,23.88
2023-09-24T17:31:23.716Z,23.87
2023-09-24T17:33:25.641Z,23.85
2023-09-24T17:35:27.382Z,23.83
2023-09-24T17:37:29.446Z,23.82
2023-09-24T17:39:32.637Z,23.80
2023-09-24T17:41:34.401Z,23.78
2023-09-24T17:43:36.141Z,23.76
2023-09-24T17:45:37.970Z,23.74
2023-09-24T17:47:39.773Z,23.68
2023-09-24T17:49:41.510Z,23.62
2023-09-24T17:51:43.447Z,23.57
2023-09-24T17:53:45.679Z,23.53
2023-09-24T17:55:54.944Z,23.49
2023-09-24T17:57:56.654Z,23.44
2023-09-24T17:59:58.926Z,23.40
2023-09-24T18:02:00.867Z,23.37
2023-09-24T18:04:03.538Z,23.31
2023-09-24T18:06:06.943Z,23.23
2023-09-24T18:08:08.812Z,23.10
2023-09-24T18:10:10.814Z,23.01
2023-09-24T18:12:12.738Z,22.95
2023-09-24T18:14:14.500Z,22.87
2023-09-24T18:16:16.416Z,22.75
2023-09-24T18:18:22.833Z,22.63
2023-09-24T18:20:24.695Z,22.51
2023-09-24T18:22:26.374Z,22.44
2023-09-24T18:24:30.888Z,22.39
2023-09-24T18:26:32.555Z,22.32
2023-09-24T18:28:34.253Z,22.30
2023-09-24T18:30:39.390Z,22.26
2023-09-24T18:32:41.148Z,22.24
2023-09-24T18:34:42.956Z,22.26
2023-09-24T18:36:44.725Z,22.27
2023-09-24T18:38:46.406Z,22.28
2023-09-24T18:40:48.892Z,22.31
2023-09-24T18:42:50.714Z,22.32
2023-09-24T18:44:53.427Z,22.28
2023-09-24T18:46:55.236Z,22.23
2023-09-24T18:48:56.971Z,22.23
2023-09-24T18:51:01.109Z,22.22
2023-09-24T18:53:04.042Z,22.23
2023-09-24T18:55:06.290Z,22.23
2023-09-24T18:57:08.029Z,22.24
2023-09-24T18:59:10.800Z,22.26
2023-09-24T19:01:12.982Z,22.25
2023-09-24T19:03:15.185Z,22.25
2023-09-24T19:05:17.155Z,22.25
2023-09-24T19:07:19.205Z,22.25
2023-09-24T19:09:20.931Z,22.23
2023-09-24T19:11:22.648Z,22.21
2023-09-24T19:13:30.121Z,22.18
2023-09-24T19:15:34.064Z,22.15
2023-09-24T19:17:35.981Z,22.11
2023-09-24T19:19:38.197Z,22.08
2023-09-24T19:21:39.942Z,22.04
2023-09-24T19:23:41.682Z,22.02
2023-09-24T19:25:45.109Z,22.02
2023-09-24T19:27:46.874Z,22.00
2023-09-24T19:29:49.163Z,21.98
2023-09-24T19:31:52.565Z,21.97
2023-09-24T19:33:57.139Z,21.96
2023-09-24T19:36:02.497Z,21.96
2023-09-24T19:38:05.970Z,21.98
2023-09-24T19:40:10.443Z,21.97
2023-09-24T19:42:12.403Z,21.96
2023-09-24T19:44:14.227Z,21.94
2023-09-24T19:46:17.717Z,21.92
2023-09-24T19:48:20.100Z,21.90
2023-09-24T19:50:21.872Z,21.89
2023-09-24T19:52:23.521Z,21.90
2023-09-24T19:54:25.402Z,21.89
2023-09-24T19:56:27.374Z,21.88
2023-09-24T19:58:29.715Z,21.86
2023-09-24T20:00:32.040Z,21.84
2023-09-24T20:02:33.760Z,21.83
2023-09-24T20:04:35.512Z,21.83
2023-09-24T20:06:38.204Z,21.81
2023-09-24T20:08:46.255Z,21.79
2023-09-24T20:10:51.560Z,21.75
2023-09-24T20:12:53.785Z,21.71
2023-09-24T20:14:58.842Z,21.59
2023-09-24T20:17:00.462Z,21.43
2023-09-24T20:19:05.441Z,21.27
2023-09-24T20:21:07.605Z,21.10
2023-09-24T20:23:09.298Z,20.92
2023-09-24T20:25:19.492Z,20.78
2023-09-24T20:27:21.709Z,20.67
2023-09-24T20:29:23.372Z,20.58
2023-09-24T20:31:25.101Z,20.52
2023-09-24T20:33:34.177Z,20.49
2023-09-24T20:35:40.648Z,20.49
2023-09-24T20:37:42.268Z,20.52
2023-09-24T20:39:43.920Z,20.56
2023-09-24T20:41:46.031Z,20.60
2023-09-24T20:43:47.794Z,20.61
2023-09-24T20:45:58.656Z,20.64
2023-09-24T20:48:05.554Z,20.65
2023-09-24T20:50:07.741Z,20.57
2023-09-24T20:52:09.388Z,20.56
2023-09-24T20:54:11.149Z,20.51
2023-09-24T20:56:12.923Z,20.46
2023-09-24T20:58:14.621Z,20.42
2023-09-24T21:00:29.377Z,20.39
2023-09-24T21:02:32.303Z,20.35
2023-09-24T21:04:37.343Z,20.30
2023-09-24T21:06:39.357Z,20.26
2023-09-24T21:08:41.517Z,20.26
2023-09-24T21:10:43.199Z,20.23
2023-09-24T21:12:45.077Z,20.17
2023-09-24T21:14:46.919Z,20.11
2023-09-24T21:16:48.584Z,20.06
2023-09-24T21:18:50.652Z,20.00
2023-09-24T21:20:56.160Z,19.95
2023-09-24T21:22:58.089Z,19.90
2023-09-24T21:24:59.813Z,19.88
2023-09-24T21:27:01.602Z,19.88
2023-09-24T21:29:03.629Z,19.89
2023-09-24T21:31:07.397Z,19.90
2023-09-24T21:33:09.202Z,19.89
2023-09-24T21:35:11.072Z,19.90
2023-09-24T21:37:17.803Z,19.92
2023-09-24T21:39:19.564Z,19.90
2023-09-24T21:41:21.368Z,19.92
2023-09-24T21:43:26.213Z,19.92
2023-09-24T21:45:29.584Z,19.93
2023-09-24T21:47:31.631Z,19.94
2023-09-24T21:49:34.239Z,19.94
2023-09-24T21:51:35.946Z,19.93
2023-09-24T21:53:37.708Z,19.92
2023-09-24T21:55:39.623Z,19.91
2023-09-24T21:57:41.516Z,19.91
2023-09-24T21:59:43.653Z,19.90
2023-09-24T22:01:53.653Z,19.88
2023-09-24T22:03:55.659Z,19.86
2023-09-24T22:05:57.676Z,19.84
2023-09-24T22:07:59.405Z,19.82
2023-09-24T22:10:01.306Z,19.81
2023-09-24T22:12:03.118Z,19.79
2023-09-24T22:14:07.828Z,19.76
2023-09-24T22:16:09.582Z,19.74
2023-09-24T22:18:11.348Z,19.72
2023-09-24T22:20:13.652Z,19.67
2023-09-24T22:22:15.320Z,19.57
2023-09-24T22:24:17.081Z,19.47
2023-09-24T22:26:19.339Z,19.36
2023-09-24T22:28:21.221Z,19.28
2023-09-24T22:30:23.691Z,19.23
2023-09-24T22:32:25.689Z,19.16
2023-09-24T22:34:27.890Z,19.05
2023-09-24T22:36:29.690Z,18.94
2023-09-24T22:38:31.928Z,18.83
2023-09-24T22:40:33.741Z,18.76
2023-09-24T22:42:36.347Z,18.73
2023-09-24T22:44:38.298Z,18.71
2023-09-24T22:46:41.619Z,18.71
2023-09-24T22:48:44.025Z,18.71
2023-09-24T22:50:52.626Z,18.70
2023-09-24T22:52:54.648Z,18.72
2023-09-24T22:54:56.704Z,18.72
2023-09-24T22:56:58.855Z,18.72
2023-09-24T22:59:01.122Z,18.72
2023-09-24T23:01:06.465Z,18.71
2023-09-24T23:03:09.424Z,18.71
2023-09-24T23:05:13.878Z,18.73
2023-09-24T23:07:15.814Z,18.72
2023-09-24T23:09:18.775Z,18.71
2023-09-24T23:11:21.078Z,18.70
2023-09-24T23:13:22.796Z,18.64
2023-09-24T23:15:24.555Z,18.58
2023-09-24T23:17:26.595Z,18.53
2023-09-24T23:19:29.296Z,18.47
2023-09-24T23:21:31.323Z,18.41
2023-09-24T23:23:33.880Z,18.35
2023-09-24T23:25:36.111Z,18.30
2023-09-24T23:27:40.752Z,18.26
2023-09-24T23:29:42.583Z,18.25
2023-09-24T23:31:44.734Z,18.25
2023-09-24T23:33:47.749Z,18.25
2023-09-24T23:35:49.862Z,18.25
2023-09-24T23:37:51.761Z,18.26
2023-09-24T23:39:53.804Z,18.26
2023-09-24T23:41:55.580Z,18.26
2023-09-24T23:43:58.654Z,18.26
2023-09-24T23:46:04.489Z,18.27
2023-09-24T23:48:08.374Z,18.26
2023-09-24T23:50:11.403Z,18.26
2023-09-24T23:52:14.768Z,18.25
2023-09-24T23:54:16.789Z,18.25
2023-09-24T23:56:19.350Z,18.24
2023-09-24T23:58:22.022Z,18.21
